createdAt,value
2019-02-16T00:06:30.352Z,1006.10
2019-02-16T00:16:30.429Z,1006.11
2019-02-16T00:26:30.410Z,1006.07
2019-02-16T00:36:30.252Z,1006.01
2019-02-16T00:46:30.207Z,1005.97
2019-02-16T00:56:30.318Z,1006.01
2019-02-16T01:06:30.377Z,1005.91
2019-02-16T01:16:30.907Z,1005.76
2019-02-16T01:26:30.322Z,1005.78
2019-02-16T01:36:30.255Z,1005.68
2019-02-16T01:46:30.355Z,1005.69
2019-02-16T01:56:30.286Z,1005.67
2019-02-16T02:06:30.451Z,1005.66
2019-02-16T02:16:30.237Z,1005.66
2019-02-16T02:26:30.234Z,1005.66
2019-02-16T02:36:30.247Z,1005.69
2019-02-16T02:46:30.135Z,1005.60
2019-02-16T02:56:30.562Z,1005.49
2019-02-16T03:06:30.344Z,1005.43
2019-02-16T03:16:30.223Z,1005.43
2019-02-16T03:26:30.185Z,1005.47
2019-02-16T03:36:30.174Z,1005.33
2019-02-16T03:46:30.638Z,1005.30
2019-02-16T03:56:30.237Z,1005.28
2019-02-16T04:06:30.141Z,1005.25
2019-02-16T04:16:30.173Z,1005.11
2019-02-16T04:26:30.267Z,1005.22
2019-02-16T04:36:30.344Z,1005.12
2019-02-16T04:46:30.851Z,1005.12
2019-02-16T04:56:30.183Z,1005.07
2019-02-16T05:16:37.944Z,1004.92
2019-02-16T05:26:37.866Z,1004.88
2019-02-16T05:36:37.903Z,1004.96
2019-02-16T05:46:38.015Z,1004.86
2019-02-16T05:56:37.909Z,1004.99
2019-02-16T06:06:38.159Z,1005.01
2019-02-16T06:16:37.915Z,1005.02
2019-02-16T06:26:37.978Z,1005.00
2019-02-16T06:36:37.967Z,1005.20
2019-02-16T06:46:37.974Z,1005.11
2019-02-16T06:56:37.897Z,1005.12
2019-02-16T07:06:37.928Z,1005.18
2019-02-16T07:16:37.885Z,1005.19
2019-02-16T07:26:38.007Z,1005.43
2019-02-16T07:36:37.828Z,1005.47
2019-02-16T07:46:38.414Z,1005.56
2019-02-16T07:56:38.289Z,1005.66
2019-02-16T08:06:37.970Z,1005.62
2019-02-16T08:16:37.894Z,1005.62
2019-02-16T08:26:37.837Z,1005.61
2019-02-16T08:36:38.035Z,1005.52
2019-02-16T08:46:37.958Z,1005.64
2019-02-16T08:56:37.917Z,1005.57
2019-02-16T09:06:37.968Z,1005.64
2019-02-16T09:16:38.426Z,1005.53
2019-02-16T09:26:38.002Z,1005.63
2019-02-16T09:36:37.974Z,1005.51
2019-02-16T09:46:37.979Z,1005.74
2019-02-16T09:56:38.073Z,1005.85
2019-02-16T10:06:37.879Z,1005.88
2019-02-16T10:16:37.968Z,1005.91
2019-02-16T10:26:37.924Z,1005.94
2019-02-16T10:36:37.998Z,1005.88
2019-02-16T10:46:37.972Z,1005.85
2019-02-16T10:56:37.929Z,1005.74
2019-02-16T11:06:37.919Z,1005.70
2019-02-16T11:16:37.888Z,1005.64
2019-02-16T11:26:37.898Z,1005.65
2019-02-16T11:36:37.996Z,1005.63
2019-02-16T11:46:38.053Z,1005.61
2019-02-16T11:56:39.087Z,1005.57
2019-02-16T12:06:37.864Z,1005.58
2019-02-16T12:16:38.901Z,1005.38
2019-02-16T12:26:37.969Z,1005.30
2019-02-16T12:36:37.834Z,1005.30
2019-02-16T12:46:37.953Z,1005.37
2019-02-16T12:56:37.996Z,1005.35
2019-02-16T13:06:38.049Z,1005.22
2019-02-16T13:16:38.023Z,1005.21
2019-02-16T13:26:37.979Z,1005.19
2019-02-16T13:36:37.975Z,1005.04
2019-02-16T13:46:37.953Z,1005.06
2019-02-16T13:56:38.114Z,1005.02
2019-02-16T14:06:37.974Z,1005.08
2019-02-16T14:16:38.016Z,1005.11
2019-02-16T14:26:37.915Z,1004.94
2019-02-16T14:36:37.997Z,1004.95
2019-02-16T14:46:38.031Z,1004.92
2019-02-16T14:56:38.059Z,1004.88
2019-02-16T15:06:38.012Z,1004.84
2019-02-16T15:16:37.976Z,1004.89
2019-02-16T15:26:38.054Z,1004.82
2019-02-16T15:36:38.033Z,1004.79
2019-02-16T15:46:38.127Z,1004.68
2019-02-16T15:56:37.969Z,1004.65
2019-02-16T16:06:38.092Z,1004.59
2019-02-16T16:16:38.057Z,1004.57
2019-02-16T16:26:38.014Z,1004.58
2019-02-16T16:36:38.595Z,1004.62
2019-02-16T16:46:37.979Z,1004.65
2019-02-16T16:56:37.983Z,1004.60
2019-02-16T17:06:38.110Z,1004.64
2019-02-16T17:16:38.009Z,1004.68
2019-02-16T17:26:38.249Z,1004.71
2019-02-16T17:36:38.011Z,1004.84
2019-02-16T17:46:37.978Z,1004.77
2019-02-16T17:56:46.433Z,1004.80
2019-02-16T18:06:38.025Z,1004.82
2019-02-16T18:16:37.948Z,1004.73
2019-02-16T18:26:38.013Z,1004.67
2019-02-16T18:36:38.023Z,1004.58
2019-02-16T18:46:38.025Z,1004.71
2019-02-16T18:56:37.928Z,1004.69
2019-02-16T19:06:37.916Z,1004.64
2019-02-16T19:16:38.118Z,1004.70
2019-02-16T19:26:37.980Z,1004.66
2019-02-16T19:36:37.953Z,1004.74
2019-02-16T19:46:38.273Z,1004.67
2019-02-16T19:56:38.036Z,1004.65
2019-02-16T20:06:38.694Z,1004.56
2019-02-16T20:16:37.996Z,1004.53
2019-02-16T20:26:37.982Z,1004.57
2019-02-16T20:36:38.093Z,1004.58
2019-02-16T20:46:37.997Z,1004.59
2019-02-16T20:56:37.972Z,1004.65
2019-02-16T21:06:38.080Z,1004.69
2019-02-16T21:16:37.993Z,1004.61
2019-02-16T21:26:39.711Z,1004.68
2019-02-16T21:36:37.919Z,1004.55
2019-02-16T21:46:38.000Z,1004.53
2019-02-16T21:56:38.021Z,1004.58
2019-02-16T22:06:38.197Z,1004.54
2019-02-16T22:16:38.001Z,1004.49
2019-02-16T22:26:37.985Z,1004.49
2019-02-16T22:36:37.986Z,1004.37
2019-02-16T22:46:38.056Z,1004.44
2019-02-16T22:56:37.933Z,1004.36
2019-02-16T23:06:37.917Z,1004.30
2019-02-16T23:16:37.979Z,1004.21
2019-02-16T23:26:37.938Z,1004.23
2019-02-16T23:36:37.947Z,1004.12
2019-02-16T23:46:37.938Z,1004.09
2019-02-16T23:56:37.869Z,1004.05
